createdAt,value
2018-07-26T00:01:29.096Z,99.90
2018-07-26T00:03:58.102Z,99.90
2018-07-26T00:06:26.987Z,99.90
2018-07-26T00:08:56.198Z,99.90
2018-07-26T00:11:25.952Z,99.90
2018-07-26T00:13:55.913Z,99.90
2018-07-26T00:18:54.736Z,99.90
2018-07-26T00:21:24.743Z,99.90
2018-07-26T00:23:54.636Z,99.90
2018-07-26T00:26:24.643Z,99.90
2018-07-26T00:28:54.348Z,99.90
2018-07-26T00:31:24.252Z,99.90
2018-07-26T00:33:53.992Z,99.90
2018-07-26T00:36:23.217Z,99.90
2018-07-26T00:38:53.393Z,99.90
2018-07-26T00:41:23.570Z,99.90
2018-07-26T00:43:53.367Z,99.90
2018-07-26T00:46:23.058Z,99.90
2018-07-26T00:48:52.706Z,99.90
2018-07-26T00:51:22.585Z,99.90
2018-07-26T00:53:51.479Z,99.90
2018-07-26T00:56:20.011Z,99.90
2018-07-26T00:58:48.500Z,99.90
2018-07-26T01:01:17.127Z,99.90
2018-07-26T01:03:45.811Z,99.90
2018-07-26T01:06:14.705Z,99.90
2018-07-26T01:08:43.634Z,99.90
2018-07-26T01:11:12.283Z,99.90
2018-07-26T01:13:40.699Z,99.90
2018-07-26T01:16:09.160Z,99.90
2018-07-26T01:18:37.539Z,99.90
2018-07-26T01:21:05.937Z,99.90
2018-07-26T01:23:34.348Z,99.90
2018-07-26T01:26:02.855Z,99.90
2018-07-26T01:28:31.380Z,99.90
2018-07-26T01:31:00.205Z,99.90
2018-07-26T01:33:28.967Z,99.90
2018-07-26T01:35:57.996Z,99.90
2018-07-26T01:38:27.233Z,99.90
2018-07-26T01:44:02.955Z,99.90
2018-07-26T01:46:31.262Z,99.90
2018-07-26T01:48:59.951Z,99.90
2018-07-26T01:51:28.941Z,99.90
2018-07-26T01:53:58.294Z,99.90
2018-07-26T01:56:27.127Z,99.90
2018-07-26T01:58:56.553Z,99.90
2018-07-26T02:01:26.223Z,99.90
2018-07-26T02:03:55.654Z,99.90
2018-07-26T02:06:25.745Z,99.90
2018-07-26T02:08:55.968Z,99.90
2018-07-26T02:11:25.774Z,99.90
2018-07-26T02:13:55.506Z,99.90
2018-07-26T02:16:25.331Z,99.90
2018-07-26T02:18:55.023Z,99.90
2018-07-26T02:21:24.017Z,99.90
2018-07-26T02:23:54.548Z,99.90
2018-07-26T02:26:24.659Z,99.90
2018-07-26T02:28:54.676Z,99.90
2018-07-26T02:31:24.614Z,99.90
2018-07-26T02:33:54.614Z,99.90
2018-07-26T02:36:24.365Z,99.90
2018-07-26T02:38:53.542Z,99.90
2018-07-26T02:41:23.759Z,99.90
2018-07-26T02:43:54.165Z,99.90
2018-07-26T02:46:23.477Z,99.90
2018-07-26T02:48:53.591Z,99.90
2018-07-26T02:51:23.526Z,99.90
2018-07-26T02:53:53.650Z,99.90
2018-07-26T02:56:23.121Z,99.90
2018-07-26T02:58:53.169Z,99.90
2018-07-26T03:01:22.718Z,99.90
2018-07-26T03:03:52.480Z,99.90
2018-07-26T03:08:49.437Z,99.90
2018-07-26T03:11:17.846Z,99.90
2018-07-26T03:13:46.654Z,99.90
2018-07-26T03:16:15.615Z,99.90
2018-07-26T03:18:44.383Z,99.90
2018-07-26T03:21:13.376Z,99.90
2018-07-26T03:23:42.028Z,99.90
2018-07-26T03:26:10.519Z,99.90
2018-07-26T03:28:38.951Z,99.90
2018-07-26T03:31:07.847Z,99.90
2018-07-26T03:33:36.241Z,99.90
2018-07-26T03:36:04.662Z,99.90
2018-07-26T03:38:33.054Z,99.90
2018-07-26T03:41:01.446Z,99.90
2018-07-26T03:43:30.192Z,99.90
2018-07-26T03:45:58.767Z,99.90
2018-07-26T03:48:27.388Z,99.90
2018-07-26T03:50:56.381Z,99.90
2018-07-26T03:53:25.776Z,99.90
2018-07-26T03:55:54.589Z,99.90
2018-07-26T03:58:23.751Z,99.90
2018-07-26T04:03:21.588Z,99.90
2018-07-26T04:05:50.299Z,99.90
2018-07-26T04:08:18.659Z,99.90
2018-07-26T04:10:46.999Z,99.90
2018-07-26T04:13:15.739Z,99.90
2018-07-26T04:15:44.480Z,99.90
2018-07-26T04:18:13.290Z,99.90
2018-07-26T04:20:41.910Z,99.90
2018-07-26T04:23:10.342Z,99.90
2018-07-26T04:25:38.721Z,99.90
2018-07-26T04:28:07.067Z,99.90
2018-07-26T04:30:35.403Z,99.90
2018-07-26T04:33:03.736Z,99.90
2018-07-26T04:38:00.158Z,99.90
2018-07-26T04:40:28.742Z,99.90
2018-07-26T04:42:57.419Z,99.90
2018-07-26T04:45:26.663Z,99.90
2018-07-26T04:47:55.493Z,99.90
2018-07-26T04:50:24.684Z,99.90
2018-07-26T04:52:53.984Z,99.90
2018-07-26T04:55:23.374Z,99.90
2018-07-26T04:57:52.959Z,99.90
2018-07-26T05:00:22.341Z,99.90
2018-07-26T05:02:52.372Z,99.90
2018-07-26T05:05:21.255Z,99.90
2018-07-26T05:07:50.267Z,99.90
2018-07-26T05:10:18.708Z,99.90
2018-07-26T05:12:47.056Z,99.90
2018-07-26T05:15:15.693Z,99.90
2018-07-26T05:17:44.399Z,99.90
2018-07-26T05:20:13.020Z,99.90
2018-07-26T05:22:41.479Z,99.90
2018-07-26T05:25:09.911Z,99.90
2018-07-26T05:27:38.401Z,99.90
2018-07-26T05:30:07.208Z,99.90
2018-07-26T05:32:35.674Z,99.90
2018-07-26T05:35:04.388Z,99.90
2018-07-26T05:37:32.833Z,99.90
2018-07-26T05:42:41.056Z,99.90
2018-07-26T05:45:11.696Z,99.90
2018-07-26T05:47:40.288Z,99.90
2018-07-26T05:50:09.444Z,99.90
2018-07-26T05:52:38.654Z,99.90
2018-07-26T05:55:09.072Z,99.90
2018-07-26T05:57:37.953Z,99.90
2018-07-26T06:00:10.521Z,99.90
2018-07-26T06:02:45.066Z,99.90
2018-07-26T06:05:13.702Z,99.90
2018-07-26T06:07:46.458Z,99.90
2018-07-26T06:10:25.403Z,99.90
2018-07-26T06:12:59.463Z,99.90
2018-07-26T06:15:32.265Z,99.90
2018-07-26T06:18:03.706Z,99.90
2018-07-26T06:20:34.094Z,99.90
2018-07-26T06:23:03.235Z,99.90
2018-07-26T06:25:31.961Z,99.90
2018-07-26T06:28:00.932Z,99.90
2018-07-26T06:30:29.497Z,99.90
2018-07-26T06:32:58.424Z,99.90
2018-07-26T06:35:27.276Z,99.90
2018-07-26T06:37:56.578Z,99.90
2018-07-26T06:40:25.639Z,99.90
2018-07-26T06:42:55.364Z,99.90
2018-07-26T06:45:24.676Z,99.90
2018-07-26T06:47:53.812Z,99.90
2018-07-26T06:50:23.335Z,99.90
2018-07-26T06:52:52.100Z,99.90
2018-07-26T06:55:20.657Z,99.90
2018-07-26T06:57:49.167Z,99.90
2018-07-26T07:00:17.940Z,99.90
2018-07-26T07:02:46.346Z,99.90
2018-07-26T07:05:14.759Z,99.90
2018-07-26T07:07:43.178Z,99.90
2018-07-26T07:10:13.353Z,99.90
2018-07-26T07:12:41.686Z,99.90
2018-07-26T07:15:10.027Z,99.90
2018-07-26T07:17:38.694Z,99.90
2018-07-26T07:20:08.012Z,99.90
2018-07-26T07:22:36.492Z,99.90
2018-07-26T07:25:05.403Z,99.90
2018-07-26T07:27:33.914Z,99.90
2018-07-26T07:30:02.560Z,99.90
2018-07-26T07:32:31.014Z,99.90
2018-07-26T07:34:59.715Z,99.90
2018-07-26T07:37:28.487Z,99.90
2018-07-26T07:39:57.062Z,99.90
2018-07-26T07:42:25.988Z,99.90
2018-07-26T07:44:54.805Z,99.90
2018-07-26T07:47:23.897Z,99.90
2018-07-26T07:49:52.702Z,99.90
2018-07-26T07:52:22.277Z,99.90
2018-07-26T07:54:51.430Z,99.90
2018-07-26T07:57:20.472Z,99.90
2018-07-26T07:59:49.231Z,98.20
2018-07-26T08:02:17.859Z,96.50
2018-07-26T08:04:46.427Z,93.60
2018-07-26T08:07:14.799Z,93.00
2018-07-26T08:09:43.246Z,93.60
2018-07-26T08:12:11.704Z,97.60
2018-07-26T08:14:40.097Z,94.90
2018-07-26T08:17:08.470Z,94.90
2018-07-26T08:19:36.890Z,99.90
2018-07-26T08:22:05.387Z,94.40
2018-07-26T08:24:33.823Z,95.50
2018-07-26T08:27:02.534Z,94.20
2018-07-26T08:31:59.339Z,94.30
2018-07-26T08:34:28.053Z,98.90
2018-07-26T08:36:56.767Z,95.10
2018-07-26T08:39:26.016Z,96.80
2018-07-26T08:41:55.315Z,85.40
2018-07-26T08:44:24.560Z,91.40
2018-07-26T08:46:54.758Z,93.10
2018-07-26T08:49:23.877Z,92.50
2018-07-26T08:51:53.072Z,89.60
2018-07-26T08:54:22.372Z,95.10
2018-07-26T08:56:51.534Z,92.00
2018-07-26T08:59:20.410Z,89.00
2018-07-26T09:01:49.091Z,91.40
2018-07-26T09:04:17.809Z,91.50
2018-07-26T09:06:46.375Z,92.90
2018-07-26T09:09:15.053Z,91.80
2018-07-26T09:11:43.557Z,87.50
2018-07-26T09:14:12.055Z,87.20
2018-07-26T09:16:40.411Z,90.30
2018-07-26T09:19:08.994Z,92.00
2018-07-26T09:21:37.302Z,90.00
2018-07-26T09:24:05.684Z,91.10
2018-07-26T09:26:34.152Z,93.10
2018-07-26T09:29:02.771Z,93.60
2018-07-26T09:31:31.487Z,93.90
2018-07-26T09:36:28.429Z,93.40
2018-07-26T09:38:57.178Z,96.20
2018-07-26T09:41:26.053Z,90.10
2018-07-26T09:43:54.561Z,87.40
2018-07-26T09:46:23.381Z,80.50
2018-07-26T09:48:52.846Z,77.20
2018-07-26T09:51:22.021Z,78.70
2018-07-26T09:53:50.711Z,74.90
2018-07-26T09:56:19.306Z,79.50
2018-07-26T09:58:48.519Z,74.50
2018-07-26T10:01:22.625Z,72.30
2018-07-26T10:03:53.461Z,76.00
2018-07-26T10:06:22.409Z,74.20
2018-07-26T10:08:51.551Z,77.80
2018-07-26T10:11:20.442Z,75.40
2018-07-26T10:13:48.911Z,69.70
2018-07-26T10:16:17.443Z,75.40
2018-07-26T10:18:45.991Z,72.70
2018-07-26T10:21:14.395Z,78.90
2018-07-26T10:23:42.835Z,76.20
2018-07-26T10:26:11.784Z,60.30
2018-07-26T10:28:40.714Z,62.50
2018-07-26T10:31:09.049Z,64.30
2018-07-26T10:33:37.518Z,77.10
2018-07-26T10:36:06.199Z,75.70
2018-07-26T10:38:34.714Z,77.40
2018-07-26T10:41:03.475Z,67.90
2018-07-26T10:43:32.378Z,68.10
2018-07-26T10:46:01.008Z,75.70
2018-07-26T10:48:29.764Z,73.00
2018-07-26T10:50:58.419Z,77.40
2018-07-26T10:53:26.928Z,74.20
2018-07-26T10:55:56.268Z,76.70
2018-07-26T10:58:25.717Z,76.10
2018-07-26T11:00:54.961Z,66.70
2018-07-26T11:03:24.751Z,67.70
2018-07-26T11:05:53.943Z,63.20
2018-07-26T11:08:23.096Z,62.20
2018-07-26T11:10:52.320Z,57.60
2018-07-26T11:13:21.583Z,60.80
2018-07-26T11:15:50.503Z,67.80
2018-07-26T11:18:24.387Z,61.40
2018-07-26T11:20:54.374Z,57.00
2018-07-26T11:23:23.846Z,59.20
2018-07-26T11:25:52.998Z,54.40
2018-07-26T11:30:53.550Z,66.00
2018-07-26T11:33:24.381Z,60.20
2018-07-26T11:35:53.839Z,59.50
2018-07-26T11:38:24.579Z,52.50
2018-07-26T11:40:55.902Z,54.60
2018-07-26T11:43:25.320Z,54.00
2018-07-26T11:45:54.904Z,50.60
2018-07-26T11:48:24.464Z,52.50
2018-07-26T11:50:54.530Z,50.10
2018-07-26T11:53:25.074Z,57.50
2018-07-26T11:55:58.787Z,55.00
2018-07-26T11:58:27.745Z,58.20
2018-07-26T12:00:56.845Z,57.50
2018-07-26T12:03:25.694Z,50.90
2018-07-26T12:05:54.752Z,55.10
2018-07-26T12:08:23.571Z,57.20
2018-07-26T12:10:52.842Z,61.10
2018-07-26T12:13:22.874Z,55.40
2018-07-26T12:15:52.074Z,58.70
2018-07-26T12:18:20.744Z,59.20
2018-07-26T12:20:49.535Z,52.70
2018-07-26T12:23:18.017Z,52.90
2018-07-26T12:25:46.486Z,56.50
2018-07-26T12:28:14.885Z,55.20
2018-07-26T12:30:43.606Z,55.60
2018-07-26T12:33:12.060Z,52.60
2018-07-26T12:35:40.378Z,59.90
2018-07-26T12:38:08.823Z,52.80
2018-07-26T12:40:37.268Z,50.00
2018-07-26T12:43:05.703Z,51.20
2018-07-26T12:45:34.167Z,51.80
2018-07-26T12:48:02.888Z,52.20
2018-07-26T12:50:31.432Z,49.90
2018-07-26T12:53:00.010Z,50.60
2018-07-26T12:55:28.891Z,50.60
2018-07-26T12:57:57.705Z,46.60
2018-07-26T13:00:26.381Z,46.10
2018-07-26T13:02:55.219Z,45.30
2018-07-26T13:05:24.291Z,49.00
2018-07-26T13:07:53.290Z,42.40
2018-07-26T13:10:22.459Z,42.90
2018-07-26T13:12:51.300Z,48.70
2018-07-26T13:15:20.463Z,47.60
2018-07-26T13:17:49.242Z,46.80
2018-07-26T13:20:17.773Z,51.80
2018-07-26T13:22:46.538Z,45.50
2018-07-26T13:25:15.170Z,50.50
2018-07-26T13:27:43.825Z,51.40
2018-07-26T13:30:12.265Z,55.00
2018-07-26T13:32:40.773Z,51.10
2018-07-26T13:35:16.610Z,46.30
2018-07-26T13:37:45.015Z,50.20
2018-07-26T13:40:13.542Z,48.80
2018-07-26T13:42:42.214Z,45.00
2018-07-26T13:45:11.008Z,47.20
2018-07-26T13:47:39.579Z,50.70
2018-07-26T13:50:08.340Z,45.20
2018-07-26T13:52:36.997Z,46.60
2018-07-26T13:55:05.879Z,49.80
2018-07-26T13:57:34.504Z,46.00
2018-07-26T14:00:03.014Z,49.50
2018-07-26T14:02:32.039Z,50.20
2018-07-26T14:05:00.637Z,50.40
2018-07-26T14:07:29.755Z,50.10
2018-07-26T14:09:58.704Z,48.00
2018-07-26T14:12:27.828Z,46.50
2018-07-26T14:14:56.682Z,51.60
2018-07-26T14:17:25.687Z,55.10
2018-07-26T14:19:54.759Z,58.10
2018-07-26T14:22:23.789Z,57.70
2018-07-26T14:24:52.997Z,58.70
2018-07-26T14:27:22.164Z,60.90
2018-07-26T14:29:51.314Z,59.20
2018-07-26T14:34:47.901Z,58.60
2018-07-26T14:37:17.780Z,62.00
2018-07-26T14:39:46.267Z,60.40
2018-07-26T14:42:14.711Z,60.20
2018-07-26T14:44:43.169Z,66.60
2018-07-26T14:47:12.013Z,66.40
2018-07-26T14:52:08.593Z,59.20
2018-07-26T14:54:37.011Z,62.00
2018-07-26T14:57:05.316Z,64.50
2018-07-26T14:59:34.032Z,59.70
2018-07-26T15:02:02.482Z,60.70
2018-07-26T15:04:31.196Z,63.10
2018-07-26T15:07:00.282Z,58.90
2018-07-26T15:09:28.988Z,59.70
2018-07-26T15:11:57.938Z,60.20
2018-07-26T15:14:26.819Z,58.30
2018-07-26T15:16:56.028Z,59.20
2018-07-26T15:19:25.330Z,59.50
2018-07-26T15:21:54.392Z,59.50
2018-07-26T15:24:23.970Z,59.60
2018-07-26T15:26:53.063Z,64.90
2018-07-26T15:29:22.328Z,62.20
2018-07-26T15:31:51.113Z,62.40
2018-07-26T15:34:19.590Z,65.60
2018-07-26T15:36:48.002Z,65.80
2018-07-26T15:39:16.457Z,67.50
2018-07-26T15:41:45.697Z,64.70
2018-07-26T15:46:44.152Z,65.40
2018-07-26T15:49:12.586Z,66.60
2018-07-26T15:51:40.916Z,64.60
2018-07-26T15:54:14.508Z,65.90
2018-07-26T15:56:42.874Z,68.20
2018-07-26T15:59:11.331Z,67.50
2018-07-26T16:01:39.934Z,67.50
2018-07-26T16:04:08.378Z,68.60
2018-07-26T16:06:36.870Z,72.20
2018-07-26T16:09:19.615Z,69.80
2018-07-26T16:11:48.047Z,68.20
2018-07-26T16:14:16.434Z,68.40
2018-07-26T16:16:44.950Z,68.80
2018-07-26T16:19:13.431Z,71.60
2018-07-26T16:21:41.946Z,71.60
2018-07-26T16:24:10.397Z,72.50
2018-07-26T16:26:38.757Z,73.10
2018-07-26T16:29:07.179Z,75.90
2018-07-26T16:31:35.666Z,76.70
2018-07-26T16:34:04.100Z,74.90
2018-07-26T16:36:32.419Z,74.70
2018-07-26T16:39:01.304Z,75.00
2018-07-26T16:41:29.858Z,75.20
2018-07-26T16:43:58.353Z,75.40
2018-07-26T16:46:27.143Z,76.30
2018-07-26T16:48:56.001Z,76.90
2018-07-26T16:51:24.623Z,77.60
2018-07-26T16:53:53.555Z,76.40
2018-07-26T16:56:22.440Z,76.30
2018-07-26T16:58:54.475Z,76.30
2018-07-26T17:01:23.065Z,77.70
2018-07-26T17:03:51.726Z,79.10
2018-07-26T17:06:20.663Z,77.30
2018-07-26T17:08:49.119Z,78.10
2018-07-26T17:11:17.654Z,77.80
2018-07-26T17:13:46.351Z,79.00
2018-07-26T17:16:14.660Z,78.10
2018-07-26T17:18:51.491Z,78.90
2018-07-26T17:21:19.650Z,77.90
2018-07-26T17:23:47.926Z,78.70
2018-07-26T17:26:16.424Z,80.20
2018-07-26T17:28:44.580Z,80.10
2018-07-26T17:31:12.818Z,81.10
2018-07-26T17:33:41.022Z,82.10
2018-07-26T17:36:09.262Z,82.20
2018-07-26T17:38:37.469Z,81.80
2018-07-26T17:41:05.862Z,82.10
2018-07-26T17:43:34.074Z,83.70
2018-07-26T17:46:02.408Z,82.90
2018-07-26T17:50:59.525Z,84.90
2018-07-26T17:55:56.710Z,86.80
2018-07-26T17:58:26.367Z,84.80
2018-07-26T18:00:55.952Z,85.00
2018-07-26T18:03:25.947Z,86.20
2018-07-26T18:05:55.275Z,87.00
2018-07-26T18:10:54.604Z,88.10
2018-07-26T18:13:24.212Z,88.00
2018-07-26T18:15:54.837Z,87.80
2018-07-26T18:18:24.092Z,88.00
2018-07-26T18:20:53.062Z,89.30
2018-07-26T18:23:22.518Z,89.50
2018-07-26T18:25:51.812Z,90.10
2018-07-26T18:28:21.832Z,92.20
2018-07-26T18:30:50.257Z,91.60
2018-07-26T18:33:18.484Z,93.30
2018-07-26T18:35:47.021Z,92.40
2018-07-26T18:38:15.655Z,92.50
2018-07-26T18:40:43.886Z,92.70
2018-07-26T18:43:12.143Z,92.90
2018-07-26T18:45:40.362Z,94.00
2018-07-26T18:48:08.618Z,95.50
2018-07-26T18:50:36.858Z,94.50
2018-07-26T18:53:05.160Z,94.90
2018-07-26T18:55:33.363Z,95.40
2018-07-26T18:58:01.692Z,96.20
2018-07-26T19:00:30.290Z,97.50
2018-07-26T19:02:59.120Z,97.70
2018-07-26T19:05:27.941Z,99.00
2018-07-26T19:07:57.243Z,98.90
2018-07-26T19:10:26.276Z,99.80
2018-07-26T19:12:55.960Z,99.90
2018-07-26T19:15:26.966Z,99.90
2018-07-26T19:17:55.973Z,99.90
2018-07-26T19:20:25.056Z,99.90
2018-07-26T19:22:54.694Z,99.90
2018-07-26T19:25:25.227Z,99.90
2018-07-26T19:27:54.818Z,99.90
2018-07-26T19:30:24.095Z,99.90
2018-07-26T19:32:53.771Z,99.90
2018-07-26T19:35:25.999Z,99.90
2018-07-26T19:37:55.951Z,99.90
2018-07-26T19:40:26.024Z,99.90
2018-07-26T19:42:56.209Z,99.90
2018-07-26T19:45:25.927Z,99.90
2018-07-26T19:47:56.081Z,99.90
2018-07-26T19:50:25.644Z,99.90
2018-07-26T19:52:55.708Z,99.90
2018-07-26T19:55:25.662Z,99.90
2018-07-26T19:57:55.939Z,99.90
2018-07-26T20:00:25.321Z,99.90
2018-07-26T20:02:54.960Z,99.90
2018-07-26T20:05:24.160Z,99.90
2018-07-26T20:10:22.114Z,99.90
2018-07-26T20:12:51.190Z,99.90
2018-07-26T20:15:19.938Z,99.90
2018-07-26T20:17:48.950Z,99.90
2018-07-26T20:20:17.357Z,99.90
2018-07-26T20:22:45.561Z,99.90
2018-07-26T20:25:14.425Z,99.90
2018-07-26T20:27:42.907Z,99.90
2018-07-26T20:30:11.529Z,99.90
2018-07-26T20:32:39.792Z,99.90
2018-07-26T20:35:08.644Z,99.90
2018-07-26T20:37:36.925Z,99.90
2018-07-26T20:40:06.892Z,99.90
2018-07-26T20:42:35.130Z,99.90
2018-07-26T20:45:03.378Z,99.90
2018-07-26T20:47:31.814Z,99.90
2018-07-26T20:50:00.358Z,99.90
2018-07-26T20:52:29.293Z,99.90
2018-07-26T20:54:58.275Z,99.90
2018-07-26T20:57:27.517Z,99.90
2018-07-26T20:59:56.781Z,99.90
2018-07-26T21:02:26.425Z,99.90
2018-07-26T21:04:55.730Z,99.90
2018-07-26T21:07:25.313Z,99.90
2018-07-26T21:09:54.994Z,99.90
2018-07-26T21:14:53.595Z,99.90
2018-07-26T21:17:25.165Z,99.90
2018-07-26T21:19:57.147Z,99.90
2018-07-26T21:22:27.344Z,99.90
2018-07-26T21:24:57.548Z,99.90
2018-07-26T21:27:27.543Z,99.90
2018-07-26T21:29:58.463Z,99.90
2018-07-26T21:32:28.133Z,99.90
2018-07-26T21:34:58.297Z,99.90
2018-07-26T21:37:28.231Z,99.90
2018-07-26T21:39:58.191Z,99.90
2018-07-26T21:42:28.325Z,99.90
2018-07-26T21:44:58.665Z,99.90
2018-07-26T21:47:28.007Z,99.90
2018-07-26T21:49:57.912Z,99.90
2018-07-26T21:52:28.886Z,99.90
2018-07-26T21:54:59.099Z,99.90
2018-07-26T21:59:59.060Z,99.90
2018-07-26T22:02:29.186Z,99.90
2018-07-26T22:04:59.294Z,99.90
2018-07-26T22:07:29.099Z,99.90
2018-07-26T22:09:59.835Z,99.90
2018-07-26T22:12:29.463Z,99.90
2018-07-26T22:14:59.474Z,99.90
2018-07-26T22:17:28.977Z,99.90
2018-07-26T22:19:58.632Z,99.90
2018-07-26T22:22:28.821Z,99.90
2018-07-26T22:24:58.818Z,99.90
2018-07-26T22:27:28.614Z,99.90
2018-07-26T22:29:58.920Z,99.90
2018-07-26T22:32:28.733Z,99.90
2018-07-26T22:34:59.102Z,99.90
2018-07-26T22:37:29.018Z,99.90
2018-07-26T22:39:58.486Z,99.90
2018-07-26T22:42:28.554Z,99.90
2018-07-26T22:44:58.328Z,99.90
2018-07-26T22:47:29.373Z,99.90
2018-07-26T22:49:58.934Z,99.90
2018-07-26T22:52:28.704Z,99.90
2018-07-26T22:54:58.739Z,99.90
2018-07-26T22:57:28.874Z,99.90
2018-07-26T22:59:59.081Z,99.90
2018-07-26T23:02:28.666Z,99.90
2018-07-26T23:04:58.683Z,99.90
2018-07-26T23:07:28.436Z,99.90
2018-07-26T23:09:58.869Z,99.90
2018-07-26T23:12:28.857Z,99.90
2018-07-26T23:14:59.133Z,99.90
2018-07-26T23:17:28.677Z,99.90
2018-07-26T23:19:58.714Z,99.90
2018-07-26T23:22:28.610Z,99.90
2018-07-26T23:24:58.838Z,99.90
2018-07-26T23:27:28.925Z,99.90
2018-07-26T23:29:58.998Z,99.90
2018-07-26T23:32:28.821Z,99.90
2018-07-26T23:34:58.994Z,99.90
2018-07-26T23:37:28.519Z,99.90
2018-07-26T23:39:58.336Z,99.90
2018-07-26T23:42:28.632Z,99.90
2018-07-26T23:44:59.155Z,99.90
2018-07-26T23:47:29.029Z,99.90
2018-07-26T23:49:59.406Z,99.90
2018-07-26T23:52:29.618Z,99.90
2018-07-26T23:54:59.545Z,99.90
2018-07-26T23:57:29.562Z,99.90
2018-07-26T23:59:58.891Z,99.90
